sensor_id;sensor_type;location;lat;lon;timestamp;temperature;humidity
17968;DHT22;9109;48.050;11.696;2023-03-14T04:47:34;8.80;99.90
17968;DHT22;9109;48.050;11.696;2023-03-14T04:50:36;8.80;99.90
17968;DHT22;9109;48.050;11.696;2023-03-14T04:53:38;8.80;99.90
17968;DHT22;9109;48.050;11.696;2023-03-14T04:56:40;8.80;99.90
17968;DHT22;9109;48.050;11.696;2023-03-14T04:59:42;8.70;99.90
17968;DHT22;9109;48.050;11.696;2023-03-14T05:02:45;8.80;99.90
17968;DHT22;9109;48.050;11.696;2023-03-14T05:05:47;8.80;99.90
17968;DHT22;9109;48.050;11.696;2023-03-14T05:08:49;8.80;99.90
17968;DHT22;9109;48.050;11.696;2023-03-14T05:11:52;8.80;99.90
17968;DHT22;9109;48.050;11.696;2023-03-14T05:14:54;8.70;99.90
17968;DHT22;9109;48.050;11.696;2023-03-14T05:17:57;8.70;99.90
17968;DHT22;9109;48.050;11.696;2023-03-14T05:21:01;8.80;99.90
17968;DHT22;9109;48.050;11.696;2023-03-14T05:24:04;8.80;99.90
17968;DHT22;9109;48.050;11.696;2023-03-14T05:27:07;8.80;99.90
17968;DHT22;9109;48.050;11.696;2023-03-14T05:30:10;8.60;99.90
17968;DHT22;9109;48.050;11.696;2023-03-14T05:33:13;8.60;99.90
17968;DHT22;9109;48.050;11.696;2023-03-14T05:36:15;8.70;99.90
17968;DHT22;9109;48.050;11.696;2023-03-14T05:39:18;8.70;99.90
17968;DHT22;9109;48.050;11.696;2023-03-14T05:42:20;8.70;99.90
17968;DHT22;9109;48.050;11.696;2023-03-14T05:46:03;8.70;99.90
17968;DHT22;9109;48.050;11.696;2023-03-14T05:49:35;8.60;99.90
17968;DHT22;9109;48.050;11.696;2023-03-14T05:57:00;8.60;99.90
17968;DHT22;9109;48.050;11.696;2023-03-14T06:00:37;8.60;99.90
17968;DHT22;9109;48.050;11.696;2023-03-14T06:03:58;8.60;99.90
17968;DHT22;9109;48.050;11.696;2023-03-14T06:07:02;8.60;99.90
17968;DHT22;9109;48.050;11.696;2023-03-14T06:10:05;8.60;99.90
17968;DHT22;9109;48.050;11.696;2023-03-14T06:13:07;8.60;99.90
17968;DHT22;9109;48.050;11.696;2023-03-14T06:16:09;8.60;99.90
17968;DHT22;9109;48.050;11.696;2023-03-14T06:19:11;8.50;99.90
17968;DHT22;9109;48.050;11.696;2023-03-14T06:22:15;8.50;99.90
17968;DHT22;9109;48.050;11.696;2023-03-14T06:25:17;8.50;99.90
17968;DHT22;9109;48.050;11.696;2023-03-14T06:28:19;8.50;99.90
17968;DHT22;9109;48.050;11.696;2023-03-14T06:31:21;8.50;99.90
17968;DHT22;9109;48.050;11.696;2023-03-14T06:34:23;8.60;99.90
17968;DHT22;9109;48.050;11.696;2023-03-14T06:37:27;8.60;99.90
17968;DHT22;9109;48.050;11.696;2023-03-14T06:40:33;8.60;99.90
17968;DHT22;9109;48.050;11.696;2023-03-14T06:43:36;8.50;99.90
17968;DHT22;9109;48.050;11.696;2023-03-14T06:46:38;8.50;99.90
17968;DHT22;9109;48.050;11.696;2023-03-14T06:49:40;8.70;99.90
17968;DHT22;9109;48.050;11.696;2023-03-14T06:52:43;8.80;99.90
17968;DHT22;9109;48.050;11.696;2023-03-14T06:55:48;8.80;99.90
17968;DHT22;9109;48.050;11.696;2023-03-14T06:58:51;8.80;99.90
17968;DHT22;9109;48.050;11.696;2023-03-14T07:01:53;8.80;99.90
17968;DHT22;9109;48.050;11.696;2023-03-14T07:04:55;8.70;99.90
17968;DHT22;9109;48.050;11.696;2023-03-14T07:07:59;8.80;99.90
17968;DHT22;9109;48.050;11.696;2023-03-14T07:11:00;8.90;99.90
17968;DHT22;9109;48.050;11.696;2023-03-14T07:14:03;9.00;99.90
17968;DHT22;9109;48.050;11.696;2023-03-14T07:17:05;8.90;99.90
17968;DHT22;9109;48.050;11.696;2023-03-14T07:20:09;8.90;99.90
17968;DHT22;9109;48.050;11.696;2023-03-14T07:23:12;8.80;99.90
17968;DHT22;9109;48.050;11.696;2023-03-14T07:26:14;8.80;99.90
17968;DHT22;9109;48.050;11.696;2023-03-14T07:29:17;8.60;99.90
17968;DHT22;9109;48.050;11.696;2023-03-14T07:32:34;8.70;99.90
17968;DHT22;9109;48.050;11.696;2023-03-14T07:36:00;8.80;99.90
17968;DHT22;9109;48.050;11.696;2023-03-14T07:39:08;8.80;99.90
17968;DHT22;9109;48.050;11.696;2023-03-14T07:42:10;8.90;99.90
17968;DHT22;9109;48.050;11.696;2023-03-14T07:45:17;9.00;99.90
17968;DHT22;9109;48.050;11.696;2023-03-14T07:48:25;9.00;99.90
17968;DHT22;9109;48.050;11.696;2023-03-14T07:51:38;9.00;99.90
17968;DHT22;9109;48.050;11.696;2023-03-14T07:54:57;9.10;99.90
17968;DHT22;9109;48.050;11.696;2023-03-14T07:58:22;9.10;99.90
17968;DHT22;9109;48.050;11.696;2023-03-14T08:01:35;9.20;99.90
17968;DHT22;9109;48.050;11.696;2023-03-14T08:04:48;9.30;99.90
17968;DHT22;9109;48.050;11.696;2023-03-14T08:07:51;9.40;99.90
17968;DHT22;9109;48.050;11.696;2023-03-14T08:11:02;9.40;99.90
17968;DHT22;9109;48.050;11.696;2023-03-14T08:14:04;9.40;99.90
17968;DHT22;9109;48.050;11.696;2023-03-14T08:17:06;9.50;99.90
17968;DHT22;9109;48.050;11.696;2023-03-14T08:20:10;9.50;99.90
17968;DHT22;9109;48.050;11.696;2023-03-14T08:23:13;9.50;99.90
17968;DHT22;9109;48.050;11.696;2023-03-14T08:26:16;9.60;99.90
17968;DHT22;9109;48.050;11.696;2023-03-14T08:29:18;9.70;99.90
17968;DHT22;9109;48.050;11.696;2023-03-14T08:32:20;9.60;99.90
17968;DHT22;9109;48.050;11.696;2023-03-14T08:35:24;9.60;99.90
17968;DHT22;9109;48.050;11.696;2023-03-14T08:38:27;9.60;99.90
17968;DHT22;9109;48.050;11.696;2023-03-14T08:41:30;9.60;99.90
17968;DHT22;9109;48.050;11.696;2023-03-14T08:44:32;9.70;99.90
17968;DHT22;9109;48.050;11.696;2023-03-14T08:47:35;9.70;99.90
17968;DHT22;9109;48.050;11.696;2023-03-14T08:50:36;9.80;99.90
17968;DHT22;9109;48.050;11.696;2023-03-14T08:53:39;9.90;99.90
17968;DHT22;9109;48.050;11.696;2023-03-14T08:56:42;9.90;99.90
17968;DHT22;9109;48.050;11.696;2023-03-14T08:59:44;9.80;99.90
17968;DHT22;9109;48.050;11.696;2023-03-14T09:02:46;9.70;99.90
17968;DHT22;9109;48.050;11.696;2023-03-14T09:05:48;9.70;99.90
17968;DHT22;9109;48.050;11.696;2023-03-14T09:08:49;9.60;99.90
17968;DHT22;9109;48.050;11.696;2023-03-14T09:11:53;9.70;99.90
17968;DHT22;9109;48.050;11.696;2023-03-14T09:14:55;9.70;99.90
17968;DHT22;9109;48.050;11.696;2023-03-14T09:17:57;9.60;99.90
17968;DHT22;9109;48.050;11.696;2023-03-14T09:20:59;9.70;99.90
17968;DHT22;9109;48.050;11.696;2023-03-14T09:24:01;9.70;99.90
17968;DHT22;9109;48.050;11.696;2023-03-14T09:27:07;9.80;99.90
17968;DHT22;9109;48.050;11.696;2023-03-14T09:30:10;9.90;99.90
17968;DHT22;9109;48.050;11.696;2023-03-14T09:33:12;9.80;99.90
17968;DHT22;9109;48.050;11.696;2023-03-14T09:36:14;9.80;99.90
17968;DHT22;9109;48.050;11.696;2023-03-14T09:39:16;9.80;99.90
17968;DHT22;9109;48.050;11.696;2023-03-14T09:42:22;9.80;99.90
17968;DHT22;9109;48.050;11.696;2023-03-14T09:45:26;9.80;99.90
17968;DHT22;9109;48.050;11.696;2023-03-14T09:48:37;9.70;99.90
17968;DHT22;9109;48.050;11.696;2023-03-14T09:51:58;9.70;99.90
17968;DHT22;9109;48.050;11.696;2023-03-14T09:55:15;9.60;99.90
17968;DHT22;9109;48.050;11.696;2023-03-14T09:58:26;9.60;99.90
17968;DHT22;9109;48.050;11.696;2023-03-14T10:01:34;9.60;99.90
17968;DHT22;9109;48.050;11.696;2023-03-14T10:04:46;9.60;99.90
17968;DHT22;9109;48.050;11.696;2023-03-14T10:07:52;9.60;99.90
17968;DHT22;9109;48.050;11.696;2023-03-14T10:11:14;9.80;99.90
17968;DHT22;9109;48.050;11.696;2023-03-14T10:14:29;9.90;99.90
17968;DHT22;9109;48.050;11.696;2023-03-14T10:17:40;10.00;99.90
17968;DHT22;9109;48.050;11.696;2023-03-14T10:20:43;10.00;99.90
17968;DHT22;9109;48.050;11.696;2023-03-14T10:23:46;10.10;99.90
17968;DHT22;9109;48.050;11.696;2023-03-14T10:26:49;10.10;99.90
17968;DHT22;9109;48.050;11.696;2023-03-14T10:29:54;10.20;99.90
17968;DHT22;9109;48.050;11.696;2023-03-14T10:32:57;10.30;99.90
17968;DHT22;9109;48.050;11.696;2023-03-14T10:36:00;10.50;99.90
17968;DHT22;9109;48.050;11.696;2023-03-14T10:39:29;10.60;99.90
17968;DHT22;9109;48.050;11.696;2023-03-14T10:42:33;10.80;99.90
17968;DHT22;9109;48.050;11.696;2023-03-14T10:45:39;10.90;99.90
17968;DHT22;9109;48.050;11.696;2023-03-14T10:48:41;11.00;99.90
17968;DHT22;9109;48.050;11.696;2023-03-14T10:51:45;11.10;99.90
17968;DHT22;9109;48.050;11.696;2023-03-14T10:54:48;11.30;99.90
17968;DHT22;9109;48.050;11.696;2023-03-14T10:57:50;11.40;99.90
17968;DHT22;9109;48.050;11.696;2023-03-14T11:01:00;11.60;99.90
17968;DHT22;9109;48.050;11.696;2023-03-14T11:04:14;11.70;99.90
17968;DHT22;9109;48.050;11.696;2023-03-14T11:07:26;11.70;99.90
17968;DHT22;9109;48.050;11.696;2023-03-14T11:10:32;11.80;99.90
17968;DHT22;9109;48.050;11.696;2023-03-14T11:13:38;11.70;99.90
17968;DHT22;9109;48.050;11.696;2023-03-14T11:16:51;11.80;99.90
17968;DHT22;9109;48.050;11.696;2023-03-14T11:19:59;11.80;99.90
17968;DHT22;9109;48.050;11.696;2023-03-14T11:23:12;11.80;99.90
17968;DHT22;9109;48.050;11.696;2023-03-14T11:26:25;11.80;99.90
17968;DHT22;9109;48.050;11.696;2023-03-14T11:29:32;11.70;99.90
17968;DHT22;9109;48.050;11.696;2023-03-14T11:32:43;11.80;99.90
17968;DHT22;9109;48.050;11.696;2023-03-14T11:35:51;11.60;99.90
17968;DHT22;9109;48.050;11.696;2023-03-14T11:38:57;11.50;99.90
17968;DHT22;9109;48.050;11.696;2023-03-14T11:41:59;11.50;99.90
17968;DHT22;9109;48.050;11.696;2023-03-14T11:45:03;11.60;99.90
17968;DHT22;9109;48.050;11.696;2023-03-14T11:48:17;11.70;99.90
17968;DHT22;9109;48.050;11.696;2023-03-14T11:51:24;11.90;99.90
17968;DHT22;9109;48.050;11.696;2023-03-14T11:54:35;12.10;99.90
17968;DHT22;9109;48.050;11.696;2023-03-14T11:57:39;12.10;99.90
17968;DHT22;9109;48.050;11.696;2023-03-14T12:00:41;12.10;99.90
17968;DHT22;9109;48.050;11.696;2023-03-14T12:03:52;12.10;99.90
17968;DHT22;9109;48.050;11.696;2023-03-14T12:06:56;12.00;99.90
17968;DHT22;9109;48.050;11.696;2023-03-14T12:10:02;12.00;99.30
17968;DHT22;9109;48.050;11.696;2023-03-14T12:13:06;12.00;98.40
17968;DHT22;9109;48.050;11.696;2023-03-14T12:16:29;12.00;97.20
17968;DHT22;9109;48.050;11.696;2023-03-14T12:19:36;12.10;96.90
17968;DHT22;9109;48.050;11.696;2023-03-14T12:22:42;12.10;97.00
17968;DHT22;9109;48.050;11.696;2023-03-14T12:25:44;12.20;96.90
17968;DHT22;9109;48.050;11.696;2023-03-14T12:28:50;12.30;96.30
17968;DHT22;9109;48.050;11.696;2023-03-14T12:32:23;12.30;95.50
17968;DHT22;9109;48.050;11.696;2023-03-14T12:35:38;12.50;95.90
17968;DHT22;9109;48.050;11.696;2023-03-14T12:42:22;12.60;95.00
17968;DHT22;9109;48.050;11.696;2023-03-14T12:45:36;12.60;95.00
17968;DHT22;9109;48.050;11.696;2023-03-14T12:48:39;12.70;94.60
17968;DHT22;9109;48.050;11.696;2023-03-14T12:51:43;12.60;95.50
17968;DHT22;9109;48.050;11.696;2023-03-14T12:54:47;12.30;95.90
17968;DHT22;9109;48.050;11.696;2023-03-14T12:57:56;12.20;96.40
17968;DHT22;9109;48.050;11.696;2023-03-14T13:01:01;12.20;96.20
17968;DHT22;9109;48.050;11.696;2023-03-14T13:04:08;12.20;95.80
17968;DHT22;9109;48.050;11.696;2023-03-14T13:07:13;12.20;96.10
17968;DHT22;9109;48.050;11.696;2023-03-14T13:10:30;12.20;95.90
17968;DHT22;9109;48.050;11.696;2023-03-14T13:13:47;12.20;95.50
17968;DHT22;9109;48.050;11.696;2023-03-14T13:16:49;12.10;95.60
17968;DHT22;9109;48.050;11.696;2023-03-14T13:19:53;12.00;95.60
17968;DHT22;9109;48.050;11.696;2023-03-14T13:22:58;11.90;95.30
17968;DHT22;9109;48.050;11.696;2023-03-14T13:26:00;11.70;95.70
17968;DHT22;9109;48.050;11.696;2023-03-14T13:29:10;11.60;95.80
17968;DHT22;9109;48.050;11.696;2023-03-14T13:32:20;11.50;95.70
17968;DHT22;9109;48.050;11.696;2023-03-14T13:35:24;11.50;95.80
17968;DHT22;9109;48.050;11.696;2023-03-14T13:38:30;11.50;95.70
17968;DHT22;9109;48.050;11.696;2023-03-14T13:41:32;11.50;95.90
17968;DHT22;9109;48.050;11.696;2023-03-14T13:44:35;11.40;96.10
17968;DHT22;9109;48.050;11.696;2023-03-14T13:47:38;11.30;96.50
17968;DHT22;9109;48.050;11.696;2023-03-14T13:50:51;11.20;96.50
17968;DHT22;9109;48.050;11.696;2023-03-14T13:53:56;11.10;97.30
17968;DHT22;9109;48.050;11.696;2023-03-14T13:57:03;11.00;98.40
17968;DHT22;9109;48.050;11.696;2023-03-14T14:00:16;10.90;99.90
17968;DHT22;9109;48.050;11.696;2023-03-14T14:03:19;10.60;99.90
17968;DHT22;9109;48.050;11.696;2023-03-14T14:06:30;10.40;99.90
17968;DHT22;9109;48.050;11.696;2023-03-14T14:09:37;10.00;99.90
17968;DHT22;9109;48.050;11.696;2023-03-14T14:12:43;9.80;99.90
17968;DHT22;9109;48.050;11.696;2023-03-14T14:15:52;9.70;99.90
17968;DHT22;9109;48.050;11.696;2023-03-14T14:18:55;9.60;99.90
17968;DHT22;9109;48.050;11.696;2023-03-14T14:21:58;9.60;99.90
17968;DHT22;9109;48.050;11.696;2023-03-14T14:25:01;9.60;99.90
17968;DHT22;9109;48.050;11.696;2023-03-14T14:28:15;9.50;99.90
17968;DHT22;9109;48.050;11.696;2023-03-14T14:31:19;9.50;99.90
17968;DHT22;9109;48.050;11.696;2023-03-14T14:34:23;9.30;99.90
17968;DHT22;9109;48.050;11.696;2023-03-14T14:37:28;9.20;99.90
17968;DHT22;9109;48.050;11.696;2023-03-14T14:40:31;9.10;99.90
17968;DHT22;9109;48.050;11.696;2023-03-14T14:43:36;9.10;99.90
17968;DHT22;9109;48.050;11.696;2023-03-14T14:46:40;8.80;99.90
17968;DHT22;9109;48.050;11.696;2023-03-14T14:49:43;8.60;99.90
17968;DHT22;9109;48.050;11.696;2023-03-14T14:52:46;8.60;99.90
17968;DHT22;9109;48.050;11.696;2023-03-14T14:55:52;8.60;99.90
17968;DHT22;9109;48.050;11.696;2023-03-14T14:58:57;8.40;99.90
17968;DHT22;9109;48.050;11.696;2023-03-14T15:02:01;8.40;99.90
17968;DHT22;9109;48.050;11.696;2023-03-14T15:05:04;8.30;99.90
17968;DHT22;9109;48.050;11.696;2023-03-14T15:08:09;8.30;99.90
17968;DHT22;9109;48.050;11.696;2023-03-14T15:11:17;8.40;99.90
17968;DHT22;9109;48.050;11.696;2023-03-14T15:14:19;8.40;99.90
17968;DHT22;9109;48.050;11.696;2023-03-14T15:17:21;8.30;99.90
17968;DHT22;9109;48.050;11.696;2023-03-14T15:20:22;8.20;99.90
17968;DHT22;9109;48.050;11.696;2023-03-14T15:23:25;8.10;99.90
17968;DHT22;9109;48.050;11.696;2023-03-14T15:26:28;8.20;99.90
17968;DHT22;9109;48.050;11.696;2023-03-14T15:29:32;8.30;99.90
17968;DHT22;9109;48.050;11.696;2023-03-14T15:32:38;8.30;99.90
17968;DHT22;9109;48.050;11.696;2023-03-14T15:35:40;8.30;99.90
17968;DHT22;9109;48.050;11.696;2023-03-14T15:38:43;8.10;99.90
17968;DHT22;9109;48.050;11.696;2023-03-14T15:41:46;8.00;99.90
17968;DHT22;9109;48.050;11.696;2023-03-14T15:44:48;8.00;99.90
17968;DHT22;9109;48.050;11.696;2023-03-14T15:47:49;8.00;99.90
17968;DHT22;9109;48.050;11.696;2023-03-14T15:50:51;8.10;99.90
17968;DHT22;9109;48.050;11.696;2023-03-14T15:53:53;8.20;99.90
17968;DHT22;9109;48.050;11.696;2023-03-14T15:56:57;8.30;99.90
17968;DHT22;9109;48.050;11.696;2023-03-14T15:59:58;8.30;99.90
17968;DHT22;9109;48.050;11.696;2023-03-14T16:03:00;8.20;99.90
17968;DHT22;9109;48.050;11.696;2023-03-14T16:06:03;8.20;99.90
17968;DHT22;9109;48.050;11.696;2023-03-14T16:09:05;8.10;99.90
17968;DHT22;9109;48.050;11.696;2023-03-14T16:12:08;8.20;99.90
17968;DHT22;9109;48.050;11.696;2023-03-14T16:15:10;8.20;99.90
17968;DHT22;9109;48.050;11.696;2023-03-14T16:18:12;8.20;99.90
17968;DHT22;9109;48.050;11.696;2023-03-14T16:21:15;8.30;99.90
17968;DHT22;9109;48.050;11.696;2023-03-14T16:24:17;8.30;99.90
17968;DHT22;9109;48.050;11.696;2023-03-14T16:27:20;8.20;99.90
17968;DHT22;9109;48.050;11.696;2023-03-14T16:30:24;8.10;99.90
17968;DHT22;9109;48.050;11.696;2023-03-14T16:33:26;8.30;99.90
17968;DHT22;9109;48.050;11.696;2023-03-14T16:36:28;8.40;99.90
17968;DHT22;9109;48.050;11.696;2023-03-14T16:39:30;8.40;99.90
17968;DHT22;9109;48.050;11.696;2023-03-14T16:42:34;8.40;99.90
17968;DHT22;9109;48.050;11.696;2023-03-14T16:45:36;8.50;99.90
17968;DHT22;9109;48.050;11.696;2023-03-14T16:48:38;8.50;99.90
17968;DHT22;9109;48.050;11.696;2023-03-14T16:51:40;8.30;99.90
17968;DHT22;9109;48.050;11.696;2023-03-14T16:54:42;8.10;99.90
17968;DHT22;9109;48.050;11.696;2023-03-14T16:57:45;8.00;99.90
17968;DHT22;9109;48.050;11.696;2023-03-14T17:00:47;8.00;99.90
17968;DHT22;9109;48.050;11.696;2023-03-14T17:04:13;8.00;99.90
17968;DHT22;9109;48.050;11.696;2023-03-14T17:07:15;7.90;99.90
17968;DHT22;9109;48.050;11.696;2023-03-14T17:10:17;7.70;99.90
17968;DHT22;9109;48.050;11.696;2023-03-14T17:13:20;7.70;99.90
17968;DHT22;9109;48.050;11.696;2023-03-14T17:16:25;7.60;99.90
17968;DHT22;9109;48.050;11.696;2023-03-14T17:19:27;7.60;99.90
17968;DHT22;9109;48.050;11.696;2023-03-14T17:22:29;7.60;99.90
17968;DHT22;9109;48.050;11.696;2023-03-14T17:25:31;7.70;99.90
17968;DHT22;9109;48.050;11.696;2023-03-14T17:28:34;7.70;99.90
17968;DHT22;9109;48.050;11.696;2023-03-14T17:31:37;7.70;99.90
17968;DHT22;9109;48.050;11.696;2023-03-14T17:34:41;7.50;99.90
17968;DHT22;9109;48.050;11.696;2023-03-14T17:37:44;7.50;99.90
17968;DHT22;9109;48.050;11.696;2023-03-14T17:40:48;7.50;99.90
17968;DHT22;9109;48.050;11.696;2023-03-14T17:43:53;7.50;99.90
17968;DHT22;9109;48.050;11.696;2023-03-14T17:46:56;7.50;99.90
17968;DHT22;9109;48.050;11.696;2023-03-14T17:49:58;7.50;99.90
17968;DHT22;9109;48.050;11.696;2023-03-14T17:53:30;7.40;99.90
17968;DHT22;9109;48.050;11.696;2023-03-14T17:56:50;7.40;99.90
17968;DHT22;9109;48.050;11.696;2023-03-14T17:59:54;7.40;99.90
17968;DHT22;9109;48.050;11.696;2023-03-14T18:02:56;7.30;99.90
17968;DHT22;9109;48.050;11.696;2023-03-14T18:05:58;7.20;99.90
17968;DHT22;9109;48.050;11.696;2023-03-14T18:09:06;7.30;99.90
17968;DHT22;9109;48.050;11.696;2023-03-14T18:12:08;7.20;99.90
17968;DHT22;9109;48.050;11.696;2023-03-14T18:15:13;7.30;99.90
17968;DHT22;9109;48.050;11.696;2023-03-14T18:18:50;7.40;99.90
17968;DHT22;9109;48.050;11.696;2023-03-14T18:21:53;7.40;99.90
17968;DHT22;9109;48.050;11.696;2023-03-14T18:25:05;7.40;99.90
17968;DHT22;9109;48.050;11.696;2023-03-14T18:28:18;7.40;99.90
17968;DHT22;9109;48.050;11.696;2023-03-14T18:31:32;7.40;99.90
17968;DHT22;9109;48.050;11.696;2023-03-14T18:34:43;7.50;99.90
17968;DHT22;9109;48.050;11.696;2023-03-14T18:37:58;7.40;99.90
17968;DHT22;9109;48.050;11.696;2023-03-14T18:44:38;7.50;99.90
17968;DHT22;9109;48.050;11.696;2023-03-14T19:04:10;7.00;99.90
17968;DHT22;9109;48.050;11.696;2023-03-14T19:07:38;7.00;99.90
17968;DHT22;9109;48.050;11.696;2023-03-14T19:15:47;7.10;99.90
17968;DHT22;9109;48.050;11.696;2023-03-14T19:22:43;7.00;99.90
17968;DHT22;9109;48.050;11.696;2023-03-14T19:25:45;7.10;99.90
17968;DHT22;9109;48.050;11.696;2023-03-14T19:28:47;7.00;99.90
17968;DHT22;9109;48.050;11.696;2023-03-14T19:31:49;6.90;99.90
17968;DHT22;9109;48.050;11.696;2023-03-14T19:34:51;6.80;99.90
17968;DHT22;9109;48.050;11.696;2023-03-14T19:37:57;6.80;99.90
17968;DHT22;9109;48.050;11.696;2023-03-14T19:40:59;6.90;99.90
17968;DHT22;9109;48.050;11.696;2023-03-14T19:44:01;6.90;99.90
17968;DHT22;9109;48.050;11.696;2023-03-14T19:47:03;6.80;99.90
17968;DHT22;9109;48.050;11.696;2023-03-14T19:50:06;6.70;99.90
17968;DHT22;9109;48.050;11.696;2023-03-14T19:53:10;6.80;99.90
17968;DHT22;9109;48.050;11.696;2023-03-14T19:56:12;6.80;99.90
17968;DHT22;9109;48.050;11.696;2023-03-14T19:59:14;6.90;99.90
17968;DHT22;9109;48.050;11.696;2023-03-14T20:02:16;6.90;99.90
17968;DHT22;9109;48.050;11.696;2023-03-14T20:05:20;7.00;99.90
17968;DHT22;9109;48.050;11.696;2023-03-14T20:08:24;7.00;99.90
17968;DHT22;9109;48.050;11.696;2023-03-14T20:11:26;7.00;99.90
17968;DHT22;9109;48.050;11.696;2023-03-14T20:14:27;7.00;99.90
17968;DHT22;9109;48.050;11.696;2023-03-14T20:17:29;6.90;99.90
17968;DHT22;9109;48.050;11.696;2023-03-14T20:20:31;6.90;99.90
17968;DHT22;9109;48.050;11.696;2023-03-14T20:23:36;7.00;99.90
17968;DHT22;9109;48.050;11.696;2023-03-14T20:26:38;6.90;99.90
17968;DHT22;9109;48.050;11.696;2023-03-14T20:29:40;6.90;99.90
17968;DHT22;9109;48.050;11.696;2023-03-14T20:37:30;6.90;99.90
17968;DHT22;9109;48.050;11.696;2023-03-14T21:02:36;6.50;99.90
17968;DHT22;9109;48.050;11.696;2023-03-14T21:14:32;6.20;99.90
17968;DHT22;9109;48.050;11.696;2023-03-14T21:18:07;6.20;99.90
17968;DHT22;9109;48.050;11.696;2023-03-14T21:29:37;6.30;99.90
17968;DHT22;9109;48.050;11.696;2023-03-14T21:37:29;6.20;99.90
17968;DHT22;9109;48.050;11.696;2023-03-14T21:40:48;6.10;99.90
17968;DHT22;9109;48.050;11.696;2023-03-14T21:45:07;6.00;99.90
17968;DHT22;9109;48.050;11.696;2023-03-14T21:52:47;5.90;99.90
17968;DHT22;9109;48.050;11.696;2023-03-14T22:00:02;5.90;99.90
17968;DHT22;9109;48.050;11.696;2023-03-14T22:03:26;5.80;99.90
17968;DHT22;9109;48.050;11.696;2023-03-14T22:07:10;5.80;99.90
17968;DHT22;9109;48.050;11.696;2023-03-14T22:22:03;5.70;99.90
17968;DHT22;9109;48.050;11.696;2023-03-14T22:25:30;5.60;99.90
17968;DHT22;9109;48.050;11.696;2023-03-14T22:29:12;5.50;99.90
17968;DHT22;9109;48.050;11.696;2023-03-14T22:32:39;5.50;99.90
17968;DHT22;9109;48.050;11.696;2023-03-14T22:44:10;5.30;99.90
17968;DHT22;9109;48.050;11.696;2023-03-14T22:47:51;5.30;99.90
17968;DHT22;9109;48.050;11.696;2023-03-14T22:51:35;5.30;99.90
17968;DHT22;9109;48.050;11.696;2023-03-14T22:59:15;5.10;99.90
17968;DHT22;9109;48.050;11.696;2023-03-14T23:02:48;5.10;99.90
17968;DHT22;9109;48.050;11.696;2023-03-14T23:06:37;5.20;99.90
17968;DHT22;9109;48.050;11.696;2023-03-14T23:09:55;5.20;99.90
17968;DHT22;9109;48.050;11.696;2023-03-14T23:13:01;5.20;99.90
17968;DHT22;9109;48.050;11.696;2023-03-14T23:16:12;5.30;99.90
17968;DHT22;9109;48.050;11.696;2023-03-14T23:19:17;5.20;99.90
17968;DHT22;9109;48.050;11.696;2023-03-14T23:22:30;5.30;99.90
17968;DHT22;9109;48.050;11.696;2023-03-14T23:25:33;5.30;99.90
17968;DHT22;9109;48.050;11.696;2023-03-14T23:28:40;5.20;99.90
17968;DHT22;9109;48.050;11.696;2023-03-14T23:31:53;5.00;99.90
17968;DHT22;9109;48.050;11.696;2023-03-14T23:35:02;5.00;99.90
17968;DHT22;9109;48.050;11.696;2023-03-14T23:38:08;5.00;99.90
17968;DHT22;9109;48.050;11.696;2023-03-14T23:41:16;5.00;99.90
17968;DHT22;9109;48.050;11.696;2023-03-14T23:44:21;5.10;99.90
17968;DHT22;9109;48.050;11.696;2023-03-14T23:47:24;5.00;99.90
17968;DHT22;9109;48.050;11.696;2023-03-14T23:50:38;5.00;99.90
17968;DHT22;9109;48.050;11.696;2023-03-14T23:53:43;5.00;99.90
17968;DHT22;9109;48.050;11.696;2023-03-14T23:56:48;5.00;99.90
17968;DHT22;9109;48.050;11.696;2023-03-14T23:59:52;5.00;99.90
